首页
METAR-TAF:

METAR-TAF

机场 :

普爾科沃機場

圣彼得堡, 俄罗斯

纬度: 59-58N, 经度: 030-18E, 海拔: 4米

当前天气观测

该预报发布于16分钟前的08:30 UTC
风速8节,风向西,在西转西南西北之间变化
温度 18°C
湿度 64%
气压 1011 hPa
能见度10公里或以上
散云层高于3000英尺

METAR: ULLI 140830Z 28004MPS 240V310 9999 SCT030 18/11 Q1011 R28L/090060 NOSIG

时间: 11:46 (08:46 UTC)

预报

该预报发布于50分钟前的07:56 UTC
预报有效从14日的 09点(UTC)到 15日的 09点(UTC)
风速10节,风向西,有时为21节阵风
能見度: 6000
多云层高于1500英尺
成为
从 14日的 20点(UTC)到 14日的 22点(UTC)
风速6节,风向
多云层高于1100英尺
短暂存在
从 14日的 20点(UTC)到 15日的 03点(UTC)
能見度: 3100
多云层高于1100英尺
多云层高于2000英尺, 积雨云.
小阵雨, 轻雾
成为
从 15日的 03点(UTC)到 15日的 05点(UTC)
风速6节,风向
能見度: 4000
小雨, 轻雾
短暂存在
从 15日的 05点(UTC)到 15日的 09点(UTC)
风速6节,风向东转东北
能見度: 2100
多云层高于600英尺
多云层高于1500英尺, 积雨云.
小阵雨, 轻雾

TAF: ULLI 140756Z 1409/1509 28005G11MPS 6000 BKN015 BECMG 1420/1422 18003MPS BKN011 TEMPO 1420/1503 3100 -SHRA BR BKN011 BKN020CB BECMG 1503/1505 10003MPS 4000 -RA BR TEMPO 1505/1509 06003MPS 2100 -SHRA BR BKN006 BKN015CB

超过4000个机场的气象观测和天气预报(METAR&TAF报告)。

可查询的气象台以黄色和红色小点在地图上表示。

将鼠标移到小点上方,可查看气象台名称。

然后点击查看天气观测和预报。

如需切换地图:点击带黑十字的绿色按钮放大地图;点击带横线的绿色按钮缩小地图;或者点击绿色箭头查看邻近地区的地图。


METAR-TAF: